createdAt,value
2023-05-22T00:00:58.102Z,20.78
2023-05-22T00:01:39.266Z,20.78
2023-05-22T00:02:19.531Z,20.76
2023-05-22T00:03:00.432Z,20.77
2023-05-22T00:03:48.279Z,20.78
2023-05-22T00:04:46.275Z,20.79
2023-05-22T00:05:45.243Z,20.67
2023-05-22T00:06:40.226Z,20.75
2023-05-22T00:07:36.271Z,20.57
2023-05-22T00:08:30.269Z,20.64
2023-05-22T00:09:11.292Z,20.50
2023-05-22T00:09:51.503Z,20.47
2023-05-22T00:10:31.258Z,20.67
2023-05-22T00:11:11.316Z,20.60
2023-05-22T00:11:52.242Z,20.68
2023-05-22T00:12:32.337Z,20.69
2023-05-22T00:13:13.231Z,20.58
2023-05-22T00:13:53.518Z,20.55
2023-05-22T00:14:33.270Z,20.65
2023-05-22T00:15:14.352Z,20.67
2023-05-22T00:15:56.262Z,20.51
2023-05-22T00:16:36.454Z,20.64
2023-05-22T00:17:21.277Z,20.59
2023-05-22T00:18:01.358Z,20.69
2023-05-22T00:18:41.264Z,20.54
2023-05-22T00:19:23.080Z,20.38
2023-05-22T00:20:10.285Z,20.36
2023-05-22T00:20:50.641Z,20.56
2023-05-22T00:21:31.247Z,20.53
2023-05-22T00:22:13.374Z,20.59
2023-05-22T00:22:55.247Z,20.52
2023-05-22T00:23:35.339Z,20.50
2023-05-22T00:24:16.224Z,20.53
2023-05-22T00:24:56.532Z,20.58
2023-05-22T00:25:37.257Z,20.49
2023-05-22T00:26:17.319Z,20.57
2023-05-22T00:26:57.251Z,20.57
2023-05-22T00:27:37.352Z,20.37
2023-05-22T00:28:18.227Z,20.40
2023-05-22T00:28:58.341Z,20.25
2023-05-22T00:29:39.233Z,20.36
2023-05-22T00:30:20.323Z,20.40
2023-05-22T00:31:00.250Z,20.29
2023-05-22T00:31:40.331Z,20.40
2023-05-22T00:32:20.224Z,20.37
2023-05-22T00:33:00.441Z,20.42
2023-05-22T00:33:41.240Z,20.20
2023-05-22T00:34:21.339Z,20.34
2023-05-22T00:35:02.232Z,20.34
2023-05-22T00:35:42.317Z,20.07
2023-05-22T00:36:22.265Z,20.24
2023-05-22T00:37:02.307Z,20.24
2023-05-22T00:37:43.223Z,20.30
2023-05-22T00:38:38.389Z,20.28
2023-05-22T00:39:18.220Z,20.25
2023-05-22T00:39:58.321Z,20.17
2023-05-22T00:40:38.407Z,20.21
2023-05-22T00:41:18.344Z,20.31
2023-05-22T00:41:59.263Z,20.20
2023-05-22T00:42:42.307Z,20.07
2023-05-22T00:43:24.293Z,20.17
2023-05-22T00:44:04.306Z,20.14
2023-05-22T00:44:45.348Z,20.10
2023-05-22T00:45:25.512Z,20.07
2023-05-22T00:46:06.208Z,20.09
2023-05-22T00:46:49.402Z,20.03
2023-05-22T00:47:30.319Z,20.20
2023-05-22T00:48:12.306Z,20.09
2023-05-22T00:48:53.238Z,20.06
2023-05-22T00:49:33.290Z,20.09
2023-05-22T00:50:15.223Z,20.09
2023-05-22T00:51:00.484Z,19.88
2023-05-22T00:51:40.207Z,20.07
2023-05-22T00:52:21.291Z,19.95
2023-05-22T00:53:02.258Z,19.97
2023-05-22T00:53:43.319Z,20.07
2023-05-22T00:54:24.219Z,19.98
2023-05-22T00:55:04.302Z,20.17
2023-05-22T00:55:44.212Z,20.12
2023-05-22T00:56:24.296Z,20.17
2023-05-22T00:57:04.229Z,20.18
2023-05-22T00:57:45.953Z,20.12
2023-05-22T00:58:28.231Z,20.01
2023-05-22T00:59:08.298Z,20.07
2023-05-22T00:59:49.236Z,20.04
2023-05-22T01:00:30.287Z,20.16
2023-05-22T01:01:12.220Z,20.09
2023-05-22T01:02:33.299Z,20.06
2023-05-22T01:03:13.361Z,20.00
2023-05-22T01:03:54.327Z,19.94
2023-05-22T01:04:35.229Z,19.98
2023-05-22T01:05:18.358Z,19.67
2023-05-22T01:05:59.305Z,19.74
2023-05-22T01:06:40.194Z,19.81
2023-05-22T01:07:23.849Z,19.91
2023-05-22T01:08:04.200Z,19.89
2023-05-22T01:08:44.302Z,19.99
2023-05-22T01:09:24.210Z,19.91
2023-05-22T01:10:04.726Z,19.94
2023-05-22T01:10:47.185Z,19.93
2023-05-22T01:11:56.335Z,19.80
2023-05-22T01:13:13.198Z,19.87
2023-05-22T01:14:44.231Z,19.95
2023-05-22T01:15:52.232Z,19.94
2023-05-22T01:16:59.182Z,19.89
2023-05-22T01:18:26.202Z,19.83
2023-05-22T01:20:28.214Z,19.88
2023-05-22T01:21:31.188Z,19.74
2023-05-22T01:22:29.209Z,19.86
2023-05-22T01:23:33.294Z,19.77
2023-05-22T01:24:39.178Z,19.50
2023-05-22T01:25:54.238Z,19.73
2023-05-22T01:27:21.198Z,19.49
2023-05-22T01:28:44.199Z,19.53
2023-05-22T01:30:41.222Z,19.70
2023-05-22T01:31:26.186Z,19.55
2023-05-22T01:32:07.275Z,19.70
2023-05-22T01:32:49.246Z,19.58
2023-05-22T01:33:31.287Z,19.72
2023-05-22T01:34:12.198Z,19.60
2023-05-22T01:34:54.771Z,19.64
2023-05-22T01:35:36.176Z,19.70
2023-05-22T01:36:16.539Z,19.63
2023-05-22T01:36:58.202Z,19.64
2023-05-22T01:37:40.583Z,19.63
2023-05-22T01:38:21.186Z,19.54
2023-05-22T01:39:01.700Z,19.53
2023-05-22T01:39:43.181Z,19.53
2023-05-22T01:40:25.621Z,19.49
2023-05-22T01:41:07.167Z,19.53
2023-05-22T01:41:48.302Z,19.55
2023-05-22T01:42:29.196Z,19.44
2023-05-22T01:43:09.291Z,19.42
2023-05-22T01:43:50.154Z,19.50
2023-05-22T01:44:30.520Z,19.50
2023-05-22T01:45:11.180Z,19.55
2023-05-22T01:45:51.536Z,19.48
2023-05-22T01:46:36.169Z,19.36
2023-05-22T01:47:16.869Z,19.35
2023-05-22T01:47:57.278Z,19.46
2023-05-22T01:48:37.265Z,19.40
2023-05-22T01:49:18.165Z,19.47
2023-05-22T01:49:58.315Z,19.25
2023-05-22T01:50:39.467Z,19.14
2023-05-22T01:52:01.271Z,19.39
2023-05-22T01:52:53.167Z,19.21
2023-05-22T01:53:49.204Z,19.30
2023-05-22T01:54:42.490Z,19.32
2023-05-22T01:55:49.148Z,19.25
2023-05-22T01:56:31.285Z,19.31
2023-05-22T01:57:48.181Z,19.28
2023-05-22T01:58:34.252Z,19.26
2023-05-22T01:59:25.185Z,19.13
2023-05-22T02:00:17.381Z,19.18
2023-05-22T02:01:01.339Z,19.14
2023-05-22T02:01:44.372Z,19.08
2023-05-22T02:02:27.309Z,19.18
2023-05-22T02:03:26.519Z,19.24
2023-05-22T02:04:08.150Z,19.20
2023-05-22T02:04:53.192Z,19.15
2023-05-22T02:05:28.311Z,19.07
2023-05-22T02:06:17.186Z,19.06
2023-05-22T02:06:51.233Z,19.03
2023-05-22T02:07:42.160Z,19.20
2023-05-22T02:08:17.245Z,18.99
2023-05-22T02:09:04.168Z,19.06
2023-05-22T02:09:39.242Z,19.09
2023-05-22T02:10:20.163Z,19.19
2023-05-22T02:11:03.260Z,19.08
2023-05-22T02:11:45.164Z,19.02
2023-05-22T02:12:26.239Z,19.09
2023-05-22T02:13:07.143Z,19.08
2023-05-22T02:13:47.222Z,19.08
2023-05-22T02:14:29.145Z,19.10
2023-05-22T02:15:10.423Z,19.09
2023-05-22T02:15:53.219Z,19.09
2023-05-22T02:16:33.257Z,19.00
2023-05-22T02:17:14.150Z,18.96
2023-05-22T02:17:54.313Z,19.06
2023-05-22T02:18:36.151Z,18.91
2023-05-22T02:19:16.369Z,19.07
2023-05-22T02:19:56.143Z,19.00
2023-05-22T02:20:50.145Z,18.99
2023-05-22T02:21:30.156Z,19.02
2023-05-22T02:22:13.781Z,19.04
2023-05-22T02:22:55.152Z,18.98
2023-05-22T02:23:35.251Z,19.03
2023-05-22T02:24:16.137Z,18.94
2023-05-22T02:24:56.217Z,18.89
2023-05-22T02:25:36.159Z,18.60
2023-05-22T02:26:16.244Z,18.56
2023-05-22T02:26:57.155Z,18.66
2023-05-22T02:27:37.235Z,18.58
2023-05-22T02:28:17.123Z,18.56
2023-05-22T02:28:57.216Z,18.55
2023-05-22T02:29:37.140Z,18.46
2023-05-22T02:30:19.271Z,18.63
2023-05-22T02:31:00.258Z,18.68
2023-05-22T02:31:40.330Z,18.58
2023-05-22T02:32:21.188Z,18.45
2023-05-22T02:33:01.361Z,18.58
2023-05-22T02:33:41.135Z,18.66
2023-05-22T02:34:21.378Z,18.68
2023-05-22T02:35:02.122Z,18.54
2023-05-22T02:35:42.224Z,18.57
2023-05-22T02:36:22.120Z,18.75
2023-05-22T02:37:03.748Z,18.69
2023-05-22T02:37:45.157Z,18.68
2023-05-22T02:38:25.225Z,18.62
2023-05-22T02:39:07.125Z,18.72
2023-05-22T02:39:47.294Z,18.72
2023-05-22T02:40:27.124Z,18.77
2023-05-22T02:41:07.241Z,18.72
2023-05-22T02:41:47.114Z,18.59
2023-05-22T02:42:27.279Z,18.63
2023-05-22T02:43:08.167Z,18.70
2023-05-22T02:43:48.246Z,18.73
2023-05-22T02:44:29.135Z,18.68
2023-05-22T02:45:10.295Z,18.65
2023-05-22T02:45:50.117Z,18.55
2023-05-22T02:46:30.221Z,18.71
2023-05-22T02:47:11.140Z,18.67
2023-05-22T02:47:51.497Z,18.70
2023-05-22T02:48:31.181Z,18.71
2023-05-22T02:49:11.212Z,18.67
2023-05-22T02:49:52.127Z,18.66
2023-05-22T02:50:32.221Z,18.63
2023-05-22T02:51:13.138Z,18.53
2023-05-22T02:51:53.339Z,18.52
2023-05-22T02:52:35.245Z,18.62
2023-05-22T02:53:17.152Z,18.64
2023-05-22T02:53:57.133Z,18.59
2023-05-22T02:54:37.204Z,18.54
2023-05-22T02:55:18.115Z,18.53
2023-05-22T02:55:58.874Z,18.53
2023-05-22T02:56:39.119Z,18.63
2023-05-22T02:57:19.212Z,18.52
2023-05-22T02:57:59.141Z,18.49
2023-05-22T02:58:39.269Z,18.46
2023-05-22T02:59:20.114Z,18.39
2023-05-22T03:00:01.534Z,18.45
2023-05-22T03:00:41.307Z,18.36
2023-05-22T03:01:22.226Z,18.37
2023-05-22T03:02:02.174Z,18.46
2023-05-22T03:02:56.229Z,18.45
2023-05-22T03:03:50.247Z,18.48
2023-05-22T03:04:37.117Z,18.43
2023-05-22T03:05:17.878Z,18.53
2023-05-22T03:06:05.350Z,18.39
2023-05-22T03:06:39.988Z,18.40
2023-05-22T03:07:28.094Z,18.41
2023-05-22T03:08:02.159Z,18.46
2023-05-22T03:08:51.095Z,18.47
2023-05-22T03:09:25.231Z,18.45
2023-05-22T03:10:05.132Z,18.42
2023-05-22T03:10:45.329Z,18.50
2023-05-22T03:11:26.102Z,18.38
2023-05-22T03:12:06.214Z,18.35
2023-05-22T03:12:46.100Z,18.49
2023-05-22T03:13:26.190Z,18.53
2023-05-22T03:14:07.087Z,18.49
2023-05-22T03:14:47.174Z,18.41
2023-05-22T03:15:28.110Z,18.46
2023-05-22T03:16:09.240Z,18.45
2023-05-22T03:16:49.154Z,18.35
2023-05-22T03:17:29.187Z,18.16
2023-05-22T03:18:17.901Z,18.31
2023-05-22T03:19:01.248Z,18.23
2023-05-22T03:19:42.097Z,18.30
2023-05-22T03:20:22.248Z,18.25
2023-05-22T03:21:02.102Z,18.28
2023-05-22T03:21:44.244Z,18.23
2023-05-22T03:22:25.085Z,18.13
2023-05-22T03:23:05.210Z,18.11
2023-05-22T03:23:46.102Z,18.25
2023-05-22T03:24:27.071Z,18.18
2023-05-22T03:25:08.084Z,18.15
2023-05-22T03:25:48.175Z,18.11
2023-05-22T03:26:28.095Z,18.11
2023-05-22T03:27:09.199Z,18.10
2023-05-22T03:27:50.068Z,18.21
2023-05-22T03:28:30.169Z,18.10
2023-05-22T03:29:10.194Z,18.24
2023-05-22T03:29:50.470Z,18.13
2023-05-22T03:30:30.098Z,18.26
2023-05-22T03:31:10.195Z,18.21
2023-05-22T03:31:51.092Z,18.26
2023-05-22T03:32:31.201Z,18.30
2023-05-22T03:33:11.113Z,18.26
2023-05-22T03:33:51.237Z,18.28
2023-05-22T03:34:33.089Z,18.26
2023-05-22T03:35:19.390Z,18.15
2023-05-22T03:36:00.136Z,18.27
2023-05-22T03:36:41.291Z,18.17
2023-05-22T03:37:21.108Z,18.15
2023-05-22T03:38:01.242Z,18.24
2023-05-22T03:38:42.080Z,18.15
2023-05-22T03:39:25.229Z,18.21
2023-05-22T03:40:06.078Z,18.06
2023-05-22T03:40:46.161Z,18.10
2023-05-22T03:41:26.063Z,18.15
2023-05-22T03:42:06.208Z,18.10
2023-05-22T03:42:46.099Z,18.05
2023-05-22T03:43:26.175Z,17.91
2023-05-22T03:44:07.073Z,17.94
2023-05-22T03:44:47.174Z,18.02
2023-05-22T03:45:27.072Z,18.07
2023-05-22T03:46:07.260Z,18.08
2023-05-22T03:46:47.070Z,18.20
2023-05-22T03:47:27.191Z,18.10
2023-05-22T03:48:08.122Z,18.09
2023-05-22T03:49:02.077Z,18.16
2023-05-22T03:49:56.080Z,18.23
2023-05-22T03:50:50.084Z,18.14
2023-05-22T03:51:44.065Z,18.21
2023-05-22T03:52:38.062Z,18.17
2023-05-22T03:53:25.137Z,18.23
2023-05-22T03:53:59.530Z,18.18
2023-05-22T03:54:46.057Z,18.03
2023-05-22T03:55:20.342Z,18.17
2023-05-22T03:56:07.089Z,18.13
2023-05-22T03:56:42.145Z,18.02
2023-05-22T03:57:29.103Z,18.12
2023-05-22T03:58:03.153Z,18.09
2023-05-22T03:58:50.123Z,18.07
2023-05-22T03:59:24.235Z,17.93
2023-05-22T04:00:19.061Z,17.80
2023-05-22T04:00:53.135Z,17.70
2023-05-22T04:01:40.085Z,17.75
2023-05-22T04:02:16.754Z,17.71
2023-05-22T04:03:05.154Z,17.61
2023-05-22T04:03:39.140Z,17.73
2023-05-22T04:04:20.093Z,17.67
2023-05-22T04:05:00.197Z,17.86
2023-05-22T04:05:40.056Z,17.89
2023-05-22T04:06:21.783Z,17.78
2023-05-22T04:07:04.041Z,17.91
2023-05-22T04:07:44.128Z,18.00
2023-05-22T04:08:25.071Z,18.05
2023-05-22T04:09:07.490Z,18.09
2023-05-22T04:09:48.067Z,17.96
2023-05-22T04:10:28.155Z,17.90
2023-05-22T04:11:10.040Z,18.10
2023-05-22T04:11:50.139Z,18.03
2023-05-22T04:12:31.055Z,18.16
2023-05-22T04:13:12.141Z,18.03
2023-05-22T04:13:52.031Z,18.18
2023-05-22T04:14:32.758Z,18.09
2023-05-22T04:15:16.074Z,18.20
2023-05-22T04:15:56.788Z,18.12
2023-05-22T04:16:38.049Z,18.18
2023-05-22T04:17:18.142Z,18.25
2023-05-22T04:17:59.106Z,18.16
2023-05-22T04:18:39.157Z,18.23
2023-05-22T04:19:20.101Z,18.19
2023-05-22T04:20:00.444Z,18.16
2023-05-22T04:20:41.303Z,17.96
2023-05-22T04:21:21.149Z,17.96
2023-05-22T04:22:01.081Z,18.07
2023-05-22T04:22:41.460Z,18.09
2023-05-22T04:23:21.088Z,18.11
2023-05-22T04:24:07.202Z,18.22
2023-05-22T04:24:48.068Z,18.12
2023-05-22T04:25:30.159Z,18.26
2023-05-22T04:26:10.065Z,18.25
2023-05-22T04:26:50.167Z,18.25
2023-05-22T04:27:30.038Z,18.26
2023-05-22T04:28:10.162Z,18.22
2023-05-22T04:28:52.075Z,18.29
2023-05-22T04:29:36.246Z,18.29
2023-05-22T04:30:17.143Z,18.30
2023-05-22T04:30:59.987Z,18.34
2023-05-22T04:31:41.177Z,18.44
2023-05-22T04:32:24.065Z,18.42
2023-05-22T04:33:05.068Z,18.37
2023-05-22T04:33:48.360Z,18.48
2023-05-22T04:34:28.048Z,18.44
2023-05-22T04:35:10.006Z,18.47
2023-05-22T04:35:51.230Z,18.52
2023-05-22T04:36:31.199Z,18.62
2023-05-22T04:37:13.101Z,18.60
2023-05-22T04:37:53.128Z,18.55
2023-05-22T04:38:33.033Z,18.58
2023-05-22T04:39:14.944Z,18.55
2023-05-22T04:39:59.045Z,18.56
2023-05-22T04:40:41.685Z,18.56
2023-05-22T04:41:24.050Z,18.64
2023-05-22T04:42:05.944Z,18.60
2023-05-22T04:42:47.063Z,18.66
2023-05-22T04:43:27.380Z,18.74
2023-05-22T04:44:10.040Z,18.78
2023-05-22T04:44:53.189Z,18.78
2023-05-22T04:45:35.065Z,18.75
2023-05-22T04:46:15.513Z,18.78
2023-05-22T04:46:58.089Z,18.76
2023-05-22T04:47:38.827Z,18.89
2023-05-22T04:48:19.121Z,18.77
2023-05-22T04:49:02.264Z,18.83
2023-05-22T04:49:43.054Z,18.82
2023-05-22T04:50:24.077Z,18.93
2023-05-22T04:51:05.073Z,18.89
2023-05-22T04:51:45.242Z,18.92
2023-05-22T04:52:25.093Z,18.79
2023-05-22T04:53:06.176Z,19.04
2023-05-22T04:53:47.188Z,19.02
2023-05-22T04:54:27.120Z,18.99
2023-05-22T04:55:08.067Z,19.02
2023-05-22T04:55:48.146Z,19.04
2023-05-22T04:56:36.056Z,19.06
2023-05-22T04:57:17.290Z,18.98
2023-05-22T04:57:59.054Z,18.93
2023-05-22T04:58:40.266Z,18.99
2023-05-22T04:59:23.066Z,19.06
2023-05-22T05:00:04.858Z,19.30
2023-05-22T05:00:45.124Z,19.30
2023-05-22T05:01:27.818Z,19.21
2023-05-22T05:02:09.116Z,19.28
2023-05-22T05:02:50.213Z,19.33
2023-05-22T05:03:35.048Z,19.39
2023-05-22T05:04:15.113Z,19.31
2023-05-22T05:04:55.067Z,19.37
2023-05-22T05:05:35.182Z,19.50
2023-05-22T05:06:16.044Z,19.53
2023-05-22T05:07:11.053Z,19.52
2023-05-22T05:08:05.036Z,19.32
2023-05-22T05:08:59.018Z,19.36
2023-05-22T05:09:53.063Z,19.26
2023-05-22T05:10:34.031Z,19.30
2023-05-22T05:11:14.088Z,19.29
2023-05-22T05:11:56.035Z,19.15
2023-05-22T05:12:36.075Z,19.34
2023-05-22T05:13:16.051Z,19.31
2023-05-22T05:13:56.122Z,19.35
2023-05-22T05:14:37.071Z,19.46
2023-05-22T05:15:17.094Z,19.47
2023-05-22T05:15:51.141Z,19.54
2023-05-22T05:16:40.049Z,19.54
2023-05-22T05:17:14.497Z,19.62
2023-05-22T05:18:03.074Z,19.68
2023-05-22T05:18:37.137Z,19.54
2023-05-22T05:19:28.175Z,19.69
2023-05-22T05:20:02.244Z,19.55
2023-05-22T05:20:43.028Z,19.60
2023-05-22T05:21:23.173Z,19.63
2023-05-22T05:22:03.060Z,19.69
2023-05-22T05:22:46.095Z,19.66
2023-05-22T05:23:26.016Z,19.71
2023-05-22T05:24:06.077Z,19.66
2023-05-22T05:24:46.029Z,19.75
2023-05-22T05:25:26.103Z,19.77
2023-05-22T05:26:07.032Z,19.68
2023-05-22T05:26:47.350Z,19.68
2023-05-22T05:27:27.014Z,19.66
2023-05-22T05:28:12.988Z,19.75
2023-05-22T05:28:54.004Z,19.57
2023-05-22T05:29:34.159Z,19.72
2023-05-22T05:30:17.599Z,19.77
2023-05-22T05:30:59.328Z,19.81
2023-05-22T05:31:39.099Z,19.89
2023-05-22T05:32:19.141Z,19.95
2023-05-22T05:32:59.065Z,19.95
2023-05-22T05:33:39.094Z,19.98
2023-05-22T05:34:20.034Z,19.96
2023-05-22T05:35:00.143Z,19.98
2023-05-22T05:35:42.734Z,20.00
2023-05-22T05:36:23.078Z,20.01
2023-05-22T05:37:05.021Z,20.08
2023-05-22T05:37:45.318Z,20.07
2023-05-22T05:38:26.003Z,20.16
2023-05-22T05:39:06.318Z,20.17
2023-05-22T05:40:26.138Z,20.16
2023-05-22T05:41:06.042Z,20.16
2023-05-22T05:41:51.097Z,20.29
2023-05-22T05:42:33.017Z,20.21
2023-05-22T05:43:16.085Z,20.32
2023-05-22T05:43:59.000Z,20.36
2023-05-22T05:44:39.097Z,20.36
2023-05-22T05:45:22.001Z,20.46
2023-05-22T05:46:02.309Z,20.43
2023-05-22T05:46:44.081Z,20.49
2023-05-22T05:47:25.049Z,20.54
2023-05-22T05:48:05.108Z,20.60
2023-05-22T05:48:45.276Z,20.54
2023-05-22T05:49:26.971Z,20.55
2023-05-22T05:50:07.293Z,20.58
2023-05-22T05:50:48.026Z,20.63
2023-05-22T05:51:28.108Z,20.69
2023-05-22T05:52:08.004Z,20.75
2023-05-22T05:52:48.135Z,20.58
2023-05-22T05:53:29.017Z,20.67
2023-05-22T05:54:09.085Z,20.71
2023-05-22T05:54:53.992Z,20.78
2023-05-22T05:55:35.070Z,20.79
2023-05-22T05:56:15.997Z,20.86
2023-05-22T05:56:56.115Z,20.89
2023-05-22T05:57:37.978Z,20.80
2023-05-22T05:58:18.104Z,20.78
2023-05-22T05:58:59.071Z,20.84
2023-05-22T05:59:39.058Z,20.90
2023-05-22T06:00:19.996Z,20.92
2023-05-22T06:01:00.140Z,20.94
2023-05-22T06:02:03.020Z,21.03
2023-05-22T06:03:05.985Z,21.07
2023-05-22T06:03:54.208Z,21.02
2023-05-22T06:04:35.020Z,21.04
2023-05-22T06:05:17.906Z,21.05
2023-05-22T06:05:59.006Z,20.97
2023-05-22T06:06:39.474Z,21.16
2023-05-22T06:07:26.977Z,21.03
2023-05-22T06:08:01.098Z,21.11
2023-05-22T06:08:48.972Z,21.24
2023-05-22T06:09:26.164Z,21.21
2023-05-22T06:10:05.999Z,21.18
2023-05-22T06:10:46.943Z,21.21
2023-05-22T06:11:28.968Z,21.22
2023-05-22T06:12:12.916Z,21.32
2023-05-22T06:12:53.011Z,21.38
2023-05-22T06:13:33.086Z,21.38
2023-05-22T06:14:15.054Z,21.43
2023-05-22T06:14:55.114Z,21.47
2023-05-22T06:15:37.011Z,21.46
2023-05-22T06:16:17.090Z,21.49
2023-05-22T06:16:57.024Z,21.50
2023-05-22T06:17:40.011Z,21.39
2023-05-22T06:18:20.016Z,21.55
2023-05-22T06:19:00.186Z,21.46
2023-05-22T06:19:41.020Z,21.54
2023-05-22T06:20:21.370Z,21.60
2023-05-22T06:21:05.975Z,21.56
2023-05-22T06:21:46.130Z,21.57
2023-05-22T06:22:27.022Z,21.61
2023-05-22T06:23:07.062Z,21.64
2023-05-22T06:23:48.039Z,21.74
2023-05-22T06:24:43.201Z,21.72
2023-05-22T06:25:36.980Z,21.70
2023-05-22T06:26:24.997Z,21.65
2023-05-22T06:26:59.114Z,21.82
2023-05-22T06:27:45.974Z,21.85
2023-05-22T06:28:20.159Z,21.84
2023-05-22T06:29:07.030Z,21.89
2023-05-22T06:29:41.159Z,21.84
2023-05-22T06:30:39.443Z,21.77
2023-05-22T06:31:14.381Z,21.88
2023-05-22T06:31:54.035Z,21.88
2023-05-22T06:32:34.248Z,21.99
2023-05-22T06:33:14.069Z,21.97
2023-05-22T06:33:54.151Z,21.99
2023-05-22T06:34:34.980Z,22.02
2023-05-22T06:35:16.091Z,22.03
2023-05-22T06:35:55.964Z,22.04
2023-05-22T06:36:36.038Z,21.94
2023-05-22T06:37:16.966Z,22.03
2023-05-22T06:37:57.359Z,22.08
2023-05-22T06:38:39.031Z,22.08
2023-05-22T06:39:20.048Z,22.15
2023-05-22T06:39:59.955Z,22.21
2023-05-22T06:40:40.368Z,22.21
2023-05-22T06:41:20.959Z,22.12
2023-05-22T06:42:01.021Z,22.25
2023-05-22T06:42:40.955Z,22.25
2023-05-22T06:43:21.015Z,22.30
2023-05-22T06:44:00.946Z,22.21
2023-05-22T06:44:41.114Z,22.26
2023-05-22T06:45:21.959Z,22.24
2023-05-22T06:46:02.137Z,22.22
2023-05-22T06:46:41.964Z,22.31
2023-05-22T06:47:22.066Z,22.32
2023-05-22T06:48:02.994Z,22.26
2023-05-22T06:48:43.053Z,22.31
2023-05-22T06:49:22.946Z,22.32
2023-05-22T06:50:03.042Z,22.24
2023-05-22T06:50:42.962Z,22.27
2023-05-22T06:51:24.421Z,22.33
2023-05-22T06:52:05.507Z,22.29
2023-05-22T06:52:46.127Z,22.24
2023-05-22T06:53:25.984Z,22.30
2023-05-22T06:54:07.256Z,22.28
2023-05-22T06:54:49.915Z,22.22
2023-05-22T06:55:30.288Z,22.33
2023-05-22T06:56:09.929Z,22.34
2023-05-22T06:56:50.079Z,22.39
2023-05-22T06:57:30.943Z,22.47
2023-05-22T06:58:11.212Z,22.49
2023-05-22T06:58:51.967Z,22.49
2023-05-22T06:59:32.083Z,22.45
2023-05-22T07:00:15.936Z,22.50
2023-05-22T07:00:56.135Z,22.50
2023-05-22T07:01:36.071Z,22.53
2023-05-22T07:02:16.002Z,22.54
2023-05-22T07:02:56.977Z,22.56
2023-05-22T07:03:36.989Z,22.60
2023-05-22T07:04:20.040Z,22.62
2023-05-22T07:05:00.036Z,22.56
2023-05-22T07:05:39.945Z,22.67
2023-05-22T07:06:20.370Z,22.74
2023-05-22T07:07:01.916Z,22.75
2023-05-22T07:07:42.053Z,22.72
2023-05-22T07:08:22.946Z,22.73
2023-05-22T07:09:03.037Z,22.76
2023-05-22T07:09:42.929Z,22.66
2023-05-22T07:10:24.995Z,22.72
2023-05-22T07:11:05.947Z,22.64
2023-05-22T07:11:46.127Z,22.71
2023-05-22T07:12:26.943Z,22.75
2023-05-22T07:13:07.030Z,22.83
2023-05-22T07:13:46.944Z,22.78
2023-05-22T07:14:27.027Z,22.86
2023-05-22T07:15:07.925Z,22.83
2023-05-22T07:15:48.022Z,22.77
2023-05-22T07:16:29.926Z,22.88
2023-05-22T07:17:10.050Z,22.95
2023-05-22T07:17:49.954Z,22.88
2023-05-22T07:18:30.028Z,22.96
2023-05-22T07:19:10.965Z,22.98
2023-05-22T07:19:51.003Z,22.93
2023-05-22T07:20:32.959Z,22.99
2023-05-22T07:21:13.001Z,23.00
2023-05-22T07:21:52.932Z,23.07
2023-05-22T07:22:33.040Z,23.03
2023-05-22T07:23:13.977Z,23.05
2023-05-22T07:23:54.048Z,23.16
2023-05-22T07:24:33.949Z,23.25
2023-05-22T07:25:15.003Z,23.29
2023-05-22T07:25:54.972Z,23.42
2023-05-22T07:26:35.042Z,23.35
2023-05-22T07:27:15.912Z,23.42
2023-05-22T07:28:14.889Z,23.27
2023-05-22T07:29:08.921Z,23.20
2023-05-22T07:30:02.955Z,23.25
2023-05-22T07:30:56.964Z,23.25
2023-05-22T07:31:51.009Z,23.37
2023-05-22T07:32:44.959Z,23.39
2023-05-22T07:33:39.912Z,23.36
2023-05-22T07:34:40.926Z,23.36
2023-05-22T07:35:34.939Z,23.34
2023-05-22T07:36:22.962Z,23.43
2023-05-22T07:36:57.296Z,23.40
2023-05-22T07:37:44.899Z,23.45
2023-05-22T07:38:19.015Z,23.46
2023-05-22T07:39:05.928Z,23.50
2023-05-22T07:39:40.069Z,23.48
2023-05-22T07:40:26.913Z,23.50
2023-05-22T07:41:00.993Z,23.50
2023-05-22T07:41:47.915Z,23.58
2023-05-22T07:42:22.042Z,23.66
2023-05-22T07:43:08.941Z,23.68
2023-05-22T07:43:42.985Z,23.61
2023-05-22T07:44:29.894Z,23.59
2023-05-22T07:45:04.035Z,23.51
2023-05-22T07:45:50.931Z,23.61
2023-05-22T07:46:25.049Z,23.58
2023-05-22T07:47:12.913Z,23.55
2023-05-22T07:47:47.098Z,23.53
2023-05-22T07:48:33.895Z,23.66
2023-05-22T07:49:07.986Z,23.67
2023-05-22T07:49:54.910Z,23.69
2023-05-22T07:50:30.488Z,23.74
2023-05-22T07:51:19.895Z,23.84
2023-05-22T07:51:53.964Z,23.64
2023-05-22T07:52:35.008Z,23.80
2023-05-22T07:53:15.038Z,23.85
2023-05-22T07:53:54.897Z,23.76
2023-05-22T07:54:34.957Z,23.86
2023-05-22T07:55:15.926Z,23.84
2023-05-22T07:55:56.050Z,23.87
2023-05-22T07:56:36.956Z,23.89
2023-05-22T07:57:17.675Z,23.93
2023-05-22T07:57:58.925Z,23.98
2023-05-22T07:58:40.087Z,23.95
2023-05-22T07:59:22.895Z,24.06
2023-05-22T08:00:09.422Z,24.01
2023-05-22T08:00:49.890Z,24.05
2023-05-22T08:01:29.951Z,23.96
2023-05-22T08:02:09.959Z,24.00
2023-05-22T08:02:51.146Z,23.98
2023-05-22T08:03:31.001Z,23.98
2023-05-22T08:04:12.090Z,24.00
2023-05-22T08:04:51.928Z,24.09
2023-05-22T08:05:32.066Z,24.03
2023-05-22T08:06:12.877Z,24.00
2023-05-22T08:06:53.993Z,24.05
2023-05-22T08:07:33.896Z,24.11
2023-05-22T08:08:13.964Z,24.11
2023-05-22T08:08:53.976Z,24.10
2023-05-22T08:09:33.990Z,24.07
2023-05-22T08:10:21.876Z,24.09
2023-05-22T08:11:04.576Z,24.12
2023-05-22T08:11:48.880Z,24.15
2023-05-22T08:12:28.974Z,24.10
2023-05-22T08:13:12.882Z,24.15
2023-05-22T08:13:52.944Z,24.10
2023-05-22T08:14:33.927Z,24.13
2023-05-22T08:15:15.028Z,24.06
2023-05-22T08:16:00.110Z,23.98
2023-05-22T08:16:41.982Z,24.01
2023-05-22T08:17:22.049Z,23.92
2023-05-22T08:18:02.975Z,23.91
2023-05-22T08:18:44.048Z,24.00
2023-05-22T08:19:24.007Z,24.10
2023-05-22T08:20:05.006Z,24.11
2023-05-22T08:20:46.374Z,24.14
2023-05-22T08:21:27.876Z,24.22
2023-05-22T08:22:07.961Z,24.25
2023-05-22T08:22:48.918Z,24.30
2023-05-22T08:23:29.907Z,24.38
2023-05-22T08:24:10.939Z,24.35
2023-05-22T08:24:50.962Z,24.37
2023-05-22T08:25:30.916Z,24.47
2023-05-22T08:26:13.015Z,24.49
2023-05-22T08:26:53.860Z,24.50
2023-05-22T08:27:33.958Z,24.60
2023-05-22T08:28:13.828Z,24.55
2023-05-22T08:28:53.968Z,24.49
2023-05-22T08:29:34.865Z,24.45
2023-05-22T08:30:15.974Z,24.44
2023-05-22T08:30:57.879Z,24.40
2023-05-22T08:31:38.012Z,24.39
2023-05-22T08:32:17.846Z,24.45
2023-05-22T08:32:57.974Z,24.48
2023-05-22T08:33:37.897Z,24.41
2023-05-22T08:34:17.923Z,24.48
2023-05-22T08:34:58.878Z,24.53
2023-05-22T08:35:38.953Z,24.40
2023-05-22T08:36:19.885Z,24.53
2023-05-22T08:37:00.094Z,24.37
2023-05-22T08:37:40.901Z,24.56
2023-05-22T08:38:22.038Z,24.63
2023-05-22T08:39:02.850Z,24.66
2023-05-22T08:39:42.974Z,24.67
2023-05-22T08:40:23.925Z,24.71
2023-05-22T08:41:04.926Z,24.80
2023-05-22T08:41:45.902Z,24.68
2023-05-22T08:42:26.030Z,24.74
2023-05-22T08:43:06.900Z,24.60
2023-05-22T08:43:47.918Z,24.62
2023-05-22T08:44:28.910Z,24.62
2023-05-22T08:45:25.053Z,24.62
2023-05-22T08:46:22.928Z,24.70
2023-05-22T08:47:15.918Z,24.71
2023-05-22T08:47:49.987Z,24.75
2023-05-22T08:48:38.830Z,24.75
2023-05-22T08:49:12.979Z,24.77
2023-05-22T08:50:05.056Z,24.77
2023-05-22T08:50:39.101Z,24.81
2023-05-22T08:51:26.830Z,24.81
2023-05-22T08:52:31.843Z,24.90
2023-05-22T08:53:30.827Z,24.58
2023-05-22T08:54:24.842Z,24.45
2023-05-22T08:55:19.888Z,24.68
2023-05-22T08:56:15.026Z,24.66
2023-05-22T08:57:09.011Z,24.62
2023-05-22T08:57:59.035Z,24.75
2023-05-22T08:58:32.953Z,24.78
2023-05-22T08:59:20.822Z,24.80
2023-05-22T08:59:54.943Z,24.89
2023-05-22T09:00:43.050Z,24.79
2023-05-22T09:01:19.365Z,24.85
2023-05-22T09:02:07.022Z,24.91
2023-05-22T09:02:41.048Z,24.84
2023-05-22T09:03:21.970Z,24.76
2023-05-22T09:04:08.071Z,24.81
2023-05-22T09:04:48.821Z,24.86
2023-05-22T09:05:28.927Z,24.82
2023-05-22T09:06:09.812Z,24.87
2023-05-22T09:06:50.491Z,24.94
2023-05-22T09:07:33.846Z,24.96
2023-05-22T09:08:20.580Z,24.82
2023-05-22T09:09:04.922Z,24.93
2023-05-22T09:09:45.979Z,24.92
2023-05-22T09:10:26.874Z,24.91
2023-05-22T09:11:06.947Z,25.04
2023-05-22T09:11:47.830Z,25.06
2023-05-22T09:12:27.902Z,25.11